map of PAH home
PAH - Airport
Location
City:  Paducah, Kentucky, United States
Name:Barkley Regional
ICAO:KPAH
IATA:PAH
FAA LID:PAH

Details
Type:Airport (Part 139 Class I)
Use:Public/Civil
Latitude:3703'37"N (37.060288)
Longitude:8846'23"W (-88.772957)
Datum:WGS 1984
Elevation:410 ft (125 m)
Variation:2.46W (WMM2015 magnetic declination)
-0.09 annual change
Runways:2
Longest:6500 × 150 ft (1981 × 45.5 m), paved

Time
Time Zone:UTC-6 (DST-5)
Local Time:

Weather
METAR:KPAH 220153Z 14003KT 10SM SCT035 24/21 A3001 RMK AO2 SLP159 T02390211 $
TAF:KPAH 212320Z 2200/2224 VRB03KT P6SM SCT100
FM221500 30005KT P6SM SCT030 BKN150
FM221900 35005KT P6SM BKN035

Related Locations
Nearby:
Farthest:YAUG: 11088 mi / 17844 km
Augusta [Augusta Airport], WA, AU

Find:

   beyond  
but within

Other Information
Maps:
Delays:
NOTAMs:
Links:
Sources:

  
flag of United States
flag of Kentucky
  

Airport Diagram

Airport diagram for PAH

Airport diagram PDF

Sectional Chart

Flight Planning
at skyvector.com

Satellite Image

Google Maps Satellite view

 

Copyright © 2004-2018 Karl L. Swartz. All rights reserved.
The Great Circle Mapper name and logo are trademarks of the Great Circle Mapper.
All other trademarks mentioned herein belong to their respective owners.
Please see credits for attibutions and further copyright information.

  Follow gcmap on Facebook Follow gcmap on Twitter Follow gcmap on Google+ GCmap on LinkedIn

hCard Microformat

Geo Microformat